Time;durP1;ratioP1;P1;durP2;ratioP2;P2;SDS_P1;SDS_P2;PMS_P1;PMS_P2;Temp;Humidity;BMP_temperature;BMP_pressure;BME280_temperature;BME280_humidity;BME280_pressure;Samples;Min_cycle;Max_cycle;Signal;HPM_P1;HPM_P2
2021/12/16 00:02:05;;;;;;;18.52;7.20;;;8.30;99.90;;;;;;5052834;28;20419;-74
2021/12/16 00:07:24;;;;;;;17.57;6.70;;;8.30;99.90;;;;;;5051374;28;20110;-74
2021/12/16 00:10:11;;;;;;;15.02;6.07;;;8.30;99.90;;;;;;5035096;28;20132;-73
2021/12/16 00:32:20;;;;;;;22.13;8.43;;;8.50;99.90;;;;;;5035199;28;20127;-74
2021/12/16 00:34:48;;;;;;;17.10;5.65;;;8.60;99.90;;;;;;5056223;28;20122;-74
2021/12/16 00:37:14;;;;;;;19.77;6.18;;;8.60;99.90;;;;;;5058341;28;20053;-74
2021/12/16 00:39:41;;;;;;;16.90;5.95;;;8.60;99.90;;;;;;5058245;28;20098;-74
2021/12/16 00:42:16;;;;;;;16.42;5.65;;;8.60;99.90;;;;;;5057669;28;20056;-74
2021/12/16 00:47:34;;;;;;;18.83;6.30;;;8.60;99.90;;;;;;5058227;28;20101;-74
2021/12/16 00:55:55;;;;;;;17.05;5.40;;;8.60;99.90;;;;;;5057415;28;20059;-74
2021/12/16 00:58:27;;;;;;;18.75;5.70;;;8.60;99.90;;;;;;5075634;28;20048;-74
2021/12/16 01:01:09;;;;;;;20.52;6.32;;;8.60;99.90;;;;;;5057915;28;20052;-73
2021/12/16 01:34:07;;;;;;;16.77;5.70;;;8.40;99.90;;;;;;5074907;28;20040;-73
2021/12/16 01:40:12;;;;;;;20.65;6.38;;;8.50;99.90;;;;;;5074422;28;20466;-74
2021/12/16 01:48:52;;;;;;;;;;;8.40;99.90;;;;;;5057116;28;20056;-74
2021/12/16 01:50:14;;;;;;;20.45;5.85;;;8.40;99.90;;;;;;5042954;28;19928;-74
2021/12/16 01:55:46;;;;;;;17.08;5.78;;;8.30;99.90;;;;;;5074581;28;20048;-74
2021/12/16 01:58:17;;;;;;;20.25;5.70;;;8.30;99.90;;;;;;5039587;28;20048;-74
2021/12/16 02:01:08;;;;;;;21.88;6.70;;;8.20;99.90;;;;;;5074789;28;20471;-74
2021/12/16 02:03:41;;;;;;;12.60;5.63;;;8.20;99.90;;;;;;5074344;28;20052;-74
2021/12/16 02:06:38;;;;;;;26.88;6.68;;;8.20;99.90;;;;;;5056343;28;20369;-74
2021/12/16 02:09:27;;;;;;;15.98;6.03;;;8.20;99.90;;;;;;5074028;28;20048;-74
2021/12/16 02:12:02;;;;;;;18.58;6.32;;;8.20;99.90;;;;;;5074011;28;20460;-74
2021/12/16 02:36:22;;;;;;;19.58;7.03;;;8.10;99.90;;;;;;5073452;28;20507;-73
2021/12/16 02:38:51;;;;;;;17.35;5.90;;;8.00;99.90;;;;;;5056259;28;20045;-73
2021/12/16 02:41:17;;;;;;;27.85;7.55;;;8.00;99.90;;;;;;5072680;28;20584;-73
2021/12/16 02:44:09;;;;;;;20.35;6.85;;;8.00;99.90;;;;;;5073456;28;20071;-74
2021/12/16 02:49:21;;;;;;;20.88;7.07;;;7.90;99.90;;;;;;5054766;28;20060;-73
2021/12/16 02:51:47;;;;;;;15.85;6.05;;;7.90;99.90;;;;;;5055989;28;20045;-74
2021/12/16 02:54:14;;;;;;;25.73;7.07;;;7.80;99.90;;;;;;5055169;28;20403;-74
2021/12/16 02:56:40;;;;;;;24.38;6.35;;;7.70;99.90;;;;;;5073246;28;20131;-73
2021/12/16 02:59:06;;;;;;;13.95;6.38;;;7.70;99.90;;;;;;5055968;28;20079;-73
2021/12/16 03:01:51;;;;;;;23.58;6.47;;;7.60;99.90;;;;;;5055078;28;20483;-73
2021/12/16 03:04:18;;;;;;;18.80;7.27;;;7.60;99.90;;;;;;5055204;28;20047;-73
2021/12/16 03:06:48;;;;;;;22.13;6.95;;;7.50;99.90;;;;;;5073611;28;20293;-74
2021/12/16 03:09:17;;;;;;;17.55;7.32;;;7.40;99.90;;;;;;5073153;28;20407;-73
2021/12/16 03:12:52;;;;;;;21.42;7.22;;;7.40;99.90;;;;;;5073390;28;20049;-74
2021/12/16 03:14:48;;;;;;;18.50;7.65;;;7.30;99.90;;;;;;5055384;28;20052;-74
2021/12/16 03:17:35;;;;;;;23.33;8.75;;;7.20;99.90;;;;;;5054576;28;20480;-73
2021/12/16 03:20:13;;;;;;;27.13;8.27;;;7.10;99.90;;;;;;5055482;28;20052;-73
2021/12/16 03:28:00;;;;;;;18.60;8.75;;;7.00;99.90;;;;;;5055488;28;20054;-73
2021/12/16 03:38:19;;;;;;;22.02;11.23;;;6.80;99.90;;;;;;5013802;28;20049;-73
2021/12/16 03:40:45;;;;;;;34.03;12.90;;;6.80;99.90;;;;;;5064619;28;20088;-73
2021/12/16 03:43:14;;;;;;;28.70;13.25;;;6.80;99.90;;;;;;5054814;28;20095;-74
2021/12/16 03:48:35;;;;;;;35.20;12.50;;;6.70;99.90;;;;;;5055116;28;20067;-73
2021/12/16 03:51:15;;;;;;;40.75;13.40;;;6.60;99.90;;;;;;5038356;28;20067;-73
2021/12/16 03:53:44;;;;;;;34.60;11.00;;;6.60;99.90;;;;;;5058571;28;20048;-73
2021/12/16 03:56:11;;;;;;;33.60;11.80;;;6.50;99.90;;;;;;5076844;28;20450;-73
2021/12/16 03:58:38;;;;;;;32.78;12.38;;;6.50;99.90;;;;;;5076291;28;20090;-73
2021/12/16 04:01:07;;;;;;;25.40;10.75;;;6.50;99.90;;;;;;5058719;28;20090;-74
2021/12/16 04:03:33;;;;;;;25.52;10.70;;;6.40;99.90;;;;;;5058942;28;20369;-73
2021/12/16 04:05:59;;;;;;;35.85;12.65;;;6.40;99.90;;;;;;5076321;28;20106;-73
2021/12/16 04:08:25;;;;;;;34.90;14.07;;;6.30;99.90;;;;;;5058862;28;20098;-73
2021/12/16 04:11:02;;;;;;;42.08;15.48;;;6.30;99.90;;;;;;5058833;28;20048;-73
2021/12/16 04:13:28;;;;;;;33.55;12.25;;;6.30;99.90;;;;;;5075753;28;20056;-73
2021/12/16 04:15:55;;;;;;;38.15;12.65;;;6.20;99.90;;;;;;5058430;28;20052;-73
2021/12/16 04:18:21;;;;;;;35.15;11.98;;;6.20;99.90;;;;;;5076206;28;20048;-73
2021/12/16 04:20:47;;;;;;;19.80;10.18;;;6.10;99.90;;;;;;5041287;28;20052;-73
2021/12/16 04:23:15;;;;;;;32.10;11.65;;;6.10;99.90;;;;;;5076663;28;20055;-73
2021/12/16 04:25:44;;;;;;;30.67;12.07;;;6.00;99.90;;;;;;5057905;28;20480;-73
2021/12/16 04:28:23;;;;;;;34.88;12.65;;;6.00;99.90;;;;;;5041590;28;20055;-73
2021/12/16 04:30:49;;;;;;;32.83;13.30;;;6.00;99.90;;;;;;5076321;28;20052;-73
2021/12/16 04:33:15;;;;;;;37.70;13.73;;;5.90;99.90;;;;;;5057662;28;20040;-73
2021/12/16 04:35:41;;;;;;;36.13;13.60;;;5.90;99.90;;;;;;5057718;28;20396;-73
2021/12/16 04:38:09;;;;;;;35.60;12.68;;;6.00;99.90;;;;;;5058260;28;20037;-73
2021/12/16 04:40:36;;;;;;;46.28;14.73;;;6.00;99.90;;;;;;5057685;28;20060;-73
2021/12/16 04:43:04;;;;;;;42.13;14.35;;;6.00;99.90;;;;;;5057966;28;20051;-73
2021/12/16 04:45:36;;;;;;;37.78;14.02;;;6.00;99.90;;;;;;5058149;28;20052;-73
2021/12/16 04:48:03;;;;;;;41.17;14.60;;;6.00;99.90;;;;;;5057364;28;20480;-73
2021/12/16 04:50:29;;;;;;;46.85;15.90;;;6.10;99.90;;;;;;5054345;28;20052;-73
2021/12/16 04:52:55;;;;;;;37.75;13.70;;;6.10;99.90;;;;;;5055818;28;20055;-73
2021/12/16 04:55:21;;;;;;;46.08;13.77;;;6.10;99.90;;;;;;5057001;28;20049;-73
2021/12/16 04:57:48;;;;;;;37.85;12.85;;;6.20;99.90;;;;;;5075992;28;20578;-73
2021/12/16 05:00:17;;;;;;;44.83;14.88;;;6.20;99.90;;;;;;5057875;28;20090;-73
2021/12/16 05:02:44;;;;;;;48.67;14.32;;;6.20;99.90;;;;;;5056850;28;20052;-73
2021/12/16 05:05:12;;;;;;;36.80;14.38;;;6.20;99.90;;;;;;5051983;28;20049;-73
2021/12/16 05:07:39;;;;;;;42.03;15.60;;;6.20;99.90;;;;;;5055598;28;20112;-73
2021/12/16 05:10:09;;;;;;;37.03;12.82;;;6.30;99.90;;;;;;5054157;28;20086;-73
2021/12/16 05:12:46;;;;;;;36.83;13.35;;;6.30;99.90;;;;;;5054577;28;20485;-73
2021/12/16 05:15:19;;;;;;;38.53;13.02;;;6.30;99.90;;;;;;5037116;28;20060;-73
2021/12/16 05:17:49;;;;;;;46.13;13.93;;;6.30;99.90;;;;;;5021567;28;20053;-73
2021/12/16 05:20:23;;;;;;;49.92;15.25;;;6.30;99.90;;;;;;5057680;28;20135;-73
2021/12/16 05:25:48;;;;;;;47.72;13.57;;;6.40;99.90;;;;;;5057367;28;20056;-73
2021/12/16 05:28:17;;;;;;;39.45;11.35;;;6.50;99.90;;;;;;5075396;28;20044;-73
2021/12/16 05:30:43;;;;;;;22.02;9.32;;;6.40;99.90;;;;;;5056253;28;20051;-73
2021/12/16 05:33:10;;;;;;;27.02;9.60;;;6.40;99.90;;;;;;5057296;28;20040;-73
2021/12/16 05:35:36;;;;;;;17.25;9.27;;;6.20;99.90;;;;;;5057101;28;20044;-73
2021/12/16 05:38:03;;;;;;;23.60;10.18;;;6.20;99.90;;;;;;5074356;28;20191;-73
2021/12/16 05:40:29;;;;;;;29.02;9.73;;;6.10;99.90;;;;;;5074979;28;20132;-73
2021/12/16 05:42:58;;;;;;;42.47;12.32;;;6.10;99.90;;;;;;5074544;28;20098;-73
2021/12/16 05:45:25;;;;;;;28.92;10.77;;;6.10;99.90;;;;;;5056813;28;20101;-73
2021/12/16 05:47:52;;;;;;;27.88;10.07;;;6.10;99.90;;;;;;5056738;28;20052;-73
2021/12/16 05:50:18;;;;;;;64.07;13.70;;;6.00;99.90;;;;;;5074040;28;20056;-73
2021/12/16 05:52:44;;;;;;;36.50;12.05;;;6.00;99.90;;;;;;5074420;28;20048;-73
2021/12/16 05:55:12;;;;;;;29.10;10.70;;;6.00;99.90;;;;;;5074545;28;20086;-73
2021/12/16 05:57:39;;;;;;;34.83;11.98;;;6.00;99.90;;;;;;5056433;28;20452;-73
2021/12/16 06:00:10;;;;;;;35.70;12.15;;;6.10;99.90;;;;;;5074477;28;20442;-73
2021/12/16 06:02:36;;;;;;;30.30;12.57;;;6.10;99.90;;;;;;5056735;28;20060;-73
2021/12/16 06:05:03;;;;;;;30.58;12.45;;;6.20;99.90;;;;;;5055761;28;20056;-73
2021/12/16 06:07:29;;;;;;;38.35;12.55;;;6.20;99.90;;;;;;5056665;28;20045;-74
2021/12/16 06:09:55;;;;;;;40.42;13.55;;;6.30;99.90;;;;;;5056611;28;20045;-74
2021/12/16 06:12:22;;;;;;;50.50;13.98;;;6.30;99.90;;;;;;5073618;28;20127;-74
2021/12/16 06:15:02;;;;;;;50.38;15.27;;;6.40;99.90;;;;;;5053068;28;20053;-74
2021/12/16 06:26:26;;;;;;;46.92;18.58;;;6.50;99.90;;;;;;5034505;28;20452;-73
2021/12/16 06:28:30;;;;;;;37.38;15.65;;;6.50;99.90;;;;;;5032851;28;20057;-74
2021/12/16 06:30:56;;;;;;;43.88;16.88;;;6.50;99.90;;;;;;5032897;28;20173;-74
2021/12/16 06:33:23;;;;;;;38.83;16.23;;;6.50;99.90;;;;;;5037528;28;20095;-74
2021/12/16 06:35:52;;;;;;;44.10;19.27;;;6.50;99.90;;;;;;5053835;28;20049;-74
2021/12/16 06:38:22;;;;;;;45.10;17.73;;;6.50;99.90;;;;;;5052780;28;20124;-74
2021/12/16 06:40:48;;;;;;;39.80;16.55;;;6.50;99.90;;;;;;5051875;28;20094;-74
2021/12/16 06:43:16;;;;;;;48.70;18.67;;;6.40;99.90;;;;;;5053879;28;20099;-74
2021/12/16 06:45:46;;;;;;;53.05;19.55;;;6.40;99.90;;;;;;5052560;28;20073;-74
2021/12/16 06:48:17;;;;;;;40.17;15.10;;;6.40;99.90;;;;;;5053125;28;20342;-74
2021/12/16 06:50:53;;;;;;;46.10;16.20;;;6.30;99.90;;;;;;5052527;28;20045;-74
2021/12/16 06:53:49;;;;;;;36.95;15.50;;;6.30;99.90;;;;;;5052275;28;20059;-74
2021/12/16 06:56:23;;;;;;;46.00;14.48;;;6.30;99.90;;;;;;5052005;28;20132;-74
2021/12/16 06:59:05;;;;;;;45.20;14.68;;;6.30;99.90;;;;;;5052430;28;20049;-74
2021/12/16 07:01:38;;;;;;;48.22;16.55;;;6.20;99.90;;;;;;5051831;28;20077;-74
2021/12/16 07:04:11;;;;;;;56.88;18.05;;;6.20;99.90;;;;;;5052391;28;20045;-74
2021/12/16 07:06:39;;;;;;;67.68;19.17;;;6.20;99.90;;;;;;5053197;28;20094;-74
2021/12/16 07:09:13;;;;;;;77.82;21.88;;;6.20;99.90;;;;;;5052669;28;20514;-74
2021/12/16 07:11:42;;;;;;;46.47;17.30;;;6.20;99.90;;;;;;5052244;28;20049;-74
2021/12/16 07:14:15;;;;;;;37.97;15.98;;;6.20;99.90;;;;;;5054957;28;20045;-75
2021/12/16 07:16:44;;;;;;;45.60;14.85;;;6.20;99.90;;;;;;5073154;28;20103;-73
2021/12/16 07:19:10;;;;;;;602.42;36.50;;;6.10;99.90;;;;;;5055384;28;20068;-73
2021/12/16 07:21:40;;;;;;;526.50;38.10;;;6.00;99.90;;;;;;5072294;28;20375;-74
2021/12/16 07:24:08;;;;;;;400.35;34.60;;;6.00;99.90;;;;;;5054690;28;20048;-74
2021/12/16 07:26:35;;;;;;;72.93;21.25;;;6.00;99.90;;;;;;5038454;28;20049;-74
2021/12/16 07:29:02;;;;;;;92.00;21.63;;;6.00;99.90;;;;;;5054744;28;20048;-74
2021/12/16 07:31:30;;;;;;;179.38;28.15;;;6.00;99.90;;;;;;5054928;28;20045;-74
2021/12/16 07:33:57;;;;;;;134.13;21.13;;;5.90;99.90;;;;;;5054952;28;20625;-74
2021/12/16 07:36:23;;;;;;;73.15;18.55;;;5.90;99.90;;;;;;5054562;28;20141;-74
2021/12/16 07:38:49;;;;;;;99.35;22.05;;;6.00;99.90;;;;;;5054860;28;20498;-74
2021/12/16 07:41:17;;;;;;;321.60;41.75;;;5.80;99.90;;;;;;5073163;28;20045;-74
2021/12/16 07:44:09;;;;;;;428.27;43.10;;;5.80;99.90;;;;;;5071411;28;20036;-74
2021/12/16 07:46:40;;;;;;;504.92;47.50;;;5.80;99.90;;;;;;5055101;28;20049;-74
2021/12/16 07:49:08;;;;;;;216.23;28.65;;;5.80;99.90;;;;;;5055167;28;20406;-74
2021/12/16 07:51:36;;;;;;;429.85;42.88;;;5.80;99.90;;;;;;5054134;28;20049;-74
2021/12/16 07:54:04;;;;;;;398.05;43.95;;;5.80;99.90;;;;;;5053400;28;20048;-74
2021/12/16 07:56:30;;;;;;;360.13;41.13;;;5.80;99.90;;;;;;5053150;28;20056;-74
2021/12/16 07:58:56;;;;;;;500.27;58.10;;;5.90;99.90;;;;;;5071242;28;20117;-74
2021/12/16 08:01:22;;;;;;;385.27;46.50;;;5.90;99.90;;;;;;5055112;28;20491;-74
2021/12/16 08:03:48;;;;;;;318.10;39.05;;;5.90;99.90;;;;;;5054143;28;20455;-74
2021/12/16 08:06:22;;;;;;;388.35;44.63;;;5.90;99.90;;;;;;5054030;28;20049;-74
2021/12/16 08:08:56;;;;;;;611.90;57.45;;;6.00;99.90;;;;;;5038075;28;20040;-74
2021/12/16 08:11:24;;;;;;;382.80;41.25;;;6.10;99.90;;;;;;5054588;28;20531;-74
2021/12/16 08:13:49;;;;;;;366.25;40.53;;;6.10;99.90;;;;;;5053616;28;20047;-74
2021/12/16 08:16:16;;;;;;;321.40;42.63;;;6.10;99.90;;;;;;5050443;28;20065;-74
2021/12/16 08:18:42;;;;;;;383.63;46.30;;;6.10;99.90;;;;;;5050369;28;20041;-74
2021/12/16 08:21:09;;;;;;;347.05;42.13;;;6.20;99.90;;;;;;5051400;28;20107;-74
2021/12/16 08:23:34;;;;;;;230.77;33.70;;;6.20;99.90;;;;;;5051564;28;20037;-74
2021/12/16 08:26:02;;;;;;;171.85;32.13;;;6.30;99.90;;;;;;5050673;28;20553;-74
2021/12/16 08:28:28;;;;;;;338.05;42.22;;;6.30;99.90;;;;;;5052695;28;20134;-74
2021/12/16 08:30:54;;;;;;;239.30;32.65;;;6.30;99.90;;;;;;5052555;28;20096;-74
2021/12/16 08:33:21;;;;;;;422.08;51.03;;;6.30;99.90;;;;;;5033524;28;20563;-74
2021/12/16 08:35:50;;;;;;;559.35;64.97;;;6.40;99.90;;;;;;5052443;28;20405;-74
2021/12/16 08:38:18;;;;;;;364.55;45.42;;;6.40;99.90;;;;;;5052603;28;20084;-75
2021/12/16 08:40:46;;;;;;;214.75;35.95;;;6.40;99.90;;;;;;5053270;28;20519;-74
2021/12/16 08:43:12;;;;;;;128.38;28.13;;;6.50;99.90;;;;;;5055632;28;20052;-75
2021/12/16 08:45:40;;;;;;;189.77;32.70;;;6.50;99.90;;;;;;5034740;28;20138;-74
2021/12/16 08:48:06;;;;;;;81.88;26.45;;;6.50;99.90;;;;;;5043305;28;20041;-74
2021/12/16 08:50:36;;;;;;;217.75;36.35;;;6.50;99.90;;;;;;5055886;28;20045;-74
2021/12/16 08:53:03;;;;;;;233.95;39.30;;;6.60;99.90;;;;;;5055368;28;20045;-74
2021/12/16 08:55:32;;;;;;;169.93;33.60;;;6.60;99.90;;;;;;5055325;28;20128;-74
2021/12/16 08:57:59;;;;;;;176.82;32.70;;;6.60;99.90;;;;;;5054464;28;20056;-74
2021/12/16 09:00:30;;;;;;;159.05;27.98;;;6.70;99.90;;;;;;5055064;28;20488;-74
2021/12/16 09:02:56;;;;;;;189.93;31.40;;;6.70;99.90;;;;;;5054894;28;20124;-74
2021/12/16 09:05:25;;;;;;;133.02;25.42;;;6.70;99.90;;;;;;5055405;28;20039;-75
2021/12/16 09:07:53;;;;;;;146.02;30.15;;;6.70;99.90;;;;;;5053785;28;20119;-74
2021/12/16 09:10:25;;;;;;;150.90;29.88;;;6.70;99.90;;;;;;5054319;28;20503;-74
2021/12/16 09:13:02;;;;;;;172.52;30.63;;;6.80;99.90;;;;;;5054479;28;20044;-74
2021/12/16 09:15:32;;;;;;;87.00;28.17;;;6.80;99.90;;;;;;5053045;28;20500;-75
2021/12/16 09:17:58;;;;;;;116.55;26.23;;;6.80;99.90;;;;;;5054094;28;20076;-75
2021/12/16 09:20:25;;;;;;;88.30;28.27;;;6.80;99.90;;;;;;5053789;28;20044;-75
2021/12/16 09:22:51;;;;;;;76.78;24.38;;;6.90;99.90;;;;;;5053449;28;20090;-74
2021/12/16 09:25:18;;;;;;;103.63;28.13;;;6.90;99.90;;;;;;5054247;28;20053;-75
2021/12/16 09:27:45;;;;;;;61.45;21.00;;;6.90;99.90;;;;;;5055242;28;20052;-74
2021/12/16 09:30:15;;;;;;;86.85;25.33;;;6.90;99.90;;;;;;5054236;28;20041;-75
2021/12/16 09:32:41;;;;;;;74.72;24.45;;;6.90;99.90;;;;;;5054119;28;20159;-74
2021/12/16 09:35:10;;;;;;;96.75;24.17;;;6.90;99.90;;;;;;5054133;28;20045;-75
2021/12/16 09:37:37;;;;;;;120.97;25.70;;;6.90;99.90;;;;;;5053889;28;20392;-75
2021/12/16 09:40:06;;;;;;;110.03;23.92;;;6.90;99.90;;;;;;5054976;28;20481;-75
2021/12/16 09:42:32;;;;;;;120.18;25.95;;;6.90;99.90;;;;;;5051538;28;20052;-75
2021/12/16 09:45:03;;;;;;;141.38;25.65;;;6.90;99.90;;;;;;5052775;28;20216;-74
2021/12/16 09:47:31;;;;;;;63.00;20.02;;;6.90;99.90;;;;;;5053496;28;20108;-74
2021/12/16 09:49:58;;;;;;;131.00;25.45;;;5.90;99.90;;;;;;5052622;28;20098;-75
2021/12/16 09:52:24;;;;;;;111.80;22.02;;;7.00;99.90;;;;;;5054864;28;20049;-74
2021/12/16 09:54:50;;;;;;;90.07;23.08;;;7.00;99.90;;;;;;5054524;28;20542;-75
2021/12/16 09:57:17;;;;;;;124.28;24.65;;;7.00;99.90;;;;;;5051841;28;20484;-74
2021/12/16 09:59:43;;;;;;;183.23;28.38;;;7.10;99.90;;;;;;5054752;28;20048;-74
2021/12/16 10:02:13;;;;;;;167.20;26.73;;;7.10;99.90;;;;;;5050813;28;20049;-75
2021/12/16 10:04:40;;;;;;;204.90;30.30;;;7.10;99.90;;;;;;5048346;28;20045;-75
2021/12/16 10:07:28;;;;;;;201.85;30.30;;;7.10;99.90;;;;;;5053425;28;20041;-75
2021/12/16 10:09:57;;;;;;;180.15;27.83;;;7.20;99.90;;;;;;5054333;28;20044;-75
2021/12/16 10:12:28;;;;;;;230.45;33.85;;;7.10;99.90;;;;;;5052509;28;20049;-74
2021/12/16 10:17:28;;;;;;;225.15;34.67;;;7.20;99.90;;;;;;5052077;28;20085;-75
2021/12/16 10:19:57;;;;;;;134.52;26.45;;;7.20;99.90;;;;;;5052599;28;20114;-74
2021/12/16 10:22:39;;;;;;;112.93;24.42;;;7.20;99.90;;;;;;5053338;28;20395;-75
2021/12/16 10:25:30;;;;;;;187.25;30.98;;;7.20;99.90;;;;;;5052054;28;20056;-74
2021/12/16 10:28:07;;;;;;;314.10;40.20;;;7.20;99.90;;;;;;5052797;28;20128;-75
2021/12/16 10:30:41;;;;;;;416.35;47.33;;;7.30;99.90;;;;;;5052616;28;20515;-75
2021/12/16 10:33:14;;;;;;;266.92;32.15;;;7.40;99.90;;;;;;5051881;28;20116;-75
2021/12/16 10:35:41;;;;;;;171.35;24.05;;;7.40;99.90;;;;;;5052820;28;20043;-75
2021/12/16 10:38:08;;;;;;;296.38;35.97;;;7.50;99.90;;;;;;5052874;28;20061;-75
2021/12/16 10:40:43;;;;;;;154.45;25.67;;;7.50;99.90;;;;;;5051799;28;20511;-75
2021/12/16 10:43:34;;;;;;;151.20;25.02;;;7.60;99.90;;;;;;5052832;28;20120;-75
2021/12/16 10:46:03;;;;;;;229.98;28.40;;;7.60;99.90;;;;;;5040490;28;20045;-75
2021/12/16 10:48:35;;;;;;;185.35;27.58;;;7.70;99.90;;;;;;5053485;28;20124;-75
2021/12/16 10:51:35;;;;;;;139.55;24.95;;;7.80;99.90;;;;;;5053505;28;20488;-75
2021/12/16 10:54:18;;;;;;;262.48;31.10;;;7.80;99.90;;;;;;5018953;28;20412;-75
2021/12/16 10:56:49;;;;;;;386.63;41.70;;;7.80;99.90;;;;;;5052196;28;20488;-75
2021/12/16 10:59:33;;;;;;;200.32;29.38;;;7.90;99.90;;;;;;5052430;28;20071;-75
2021/12/16 11:02:09;;;;;;;81.20;22.08;;;7.90;99.90;;;;;;5051370;28;20110;-75
2021/12/16 11:04:49;;;;;;;125.88;24.17;;;7.90;99.90;;;;;;5052135;28;20053;-75
2021/12/16 11:07:22;;;;;;;289.88;37.05;;;8.00;99.90;;;;;;5051546;28;20468;-74
2021/12/16 11:10:04;;;;;;;138.23;25.08;;;8.00;99.90;;;;;;5053431;28;20044;-75
2021/12/16 11:12:53;;;;;;;92.43;23.13;;;8.10;99.90;;;;;;5048594;28;20111;-75
2021/12/16 11:15:24;;;;;;;171.50;29.10;;;8.10;99.90;;;;;;5061265;28;20500;-75
2021/12/16 11:18:09;;;;;;;124.53;26.63;;;8.10;99.90;;;;;;5055017;28;20097;-75
2021/12/16 11:20:48;;;;;;;89.63;24.85;;;8.20;99.90;;;;;;5054750;28;20119;-74
2021/12/16 11:23:17;;;;;;;74.78;23.58;;;8.20;99.90;;;;;;5054352;28;20131;-74
2021/12/16 11:25:44;;;;;;;103.63;24.75;;;8.20;99.90;;;;;;5073311;28;20048;-75
2021/12/16 11:28:28;;;;;;;131.25;26.15;;;8.30;99.90;;;;;;5072358;28;20044;-75
2021/12/16 11:30:56;;;;;;;104.68;23.50;;;8.30;99.90;;;;;;5055138;28;20056;-75
2021/12/16 11:33:29;;;;;;;76.57;22.17;;;8.30;99.90;;;;;;5054791;28;20044;-75
2021/12/16 11:36:04;;;;;;;82.55;22.67;;;8.30;99.90;;;;;;5070786;28;20044;-74
2021/12/16 11:38:48;;;;;;;140.35;28.85;;;8.40;99.90;;;;;;5072283;28;20496;-74
2021/12/16 11:41:40;;;;;;;89.65;23.40;;;8.40;99.90;;;;;;5054981;28;20484;-74
2021/12/16 11:44:08;;;;;;;83.82;22.70;;;8.40;99.90;;;;;;5053154;28;20127;-75
2021/12/16 11:46:50;;;;;;;94.53;23.55;;;8.50;99.90;;;;;;5073262;28;20041;-75
2021/12/16 11:49:34;;;;;;;112.68;25.52;;;8.50;99.90;;;;;;5053432;28;20055;-74
2021/12/16 11:52:14;;;;;;;228.35;34.92;;;8.50;99.90;;;;;;5073131;28;20039;-74
2021/12/16 11:54:47;;;;;;;108.15;26.50;;;8.50;99.90;;;;;;5072786;28;20032;-73
2021/12/16 11:58:00;;;;;;;99.85;24.90;;;8.50;99.90;;;;;;5071922;28;20090;-74
2021/12/16 12:00:33;;;;;;;122.72;27.15;;;8.60;99.90;;;;;;4975317;28;20043;-75
2021/12/16 12:03:07;;;;;;;108.30;25.25;;;8.60;99.90;;;;;;4973761;28;20059;-75
2021/12/16 12:05:42;;;;;;;73.35;24.30;;;8.60;99.90;;;;;;5024698;28;20468;-75
2021/12/16 12:08:26;;;;;;;105.03;26.77;;;8.70;99.90;;;;;;5054954;28;20049;-75
2021/12/16 12:11:05;;;;;;;126.25;27.90;;;8.70;99.90;;;;;;5072140;28;20044;-75
2021/12/16 12:13:40;;;;;;;82.85;24.48;;;8.80;99.90;;;;;;5072832;28;20048;-75
2021/12/16 12:16:15;;;;;;;111.20;24.48;;;8.70;99.90;;;;;;5076322;28;20063;-75
2021/12/16 12:18:43;;;;;;;93.07;24.17;;;8.80;99.90;;;;;;5075306;28;20043;-75
2021/12/16 12:21:35;;;;;;;103.13;24.10;;;8.80;99.90;;;;;;5055200;28;20140;-75
2021/12/16 12:24:13;;;;;;;77.43;23.05;;;8.80;99.90;;;;;;5038108;28;20398;-75
2021/12/16 12:26:46;;;;;;;113.38;27.45;;;8.80;99.90;;;;;;5038807;28;20045;-75
2021/12/16 12:29:28;;;;;;;148.18;30.80;;;8.80;99.90;;;;;;5038668;28;20041;-75
2021/12/16 12:32:08;;;;;;;77.68;23.33;;;8.80;99.90;;;;;;5037704;28;20048;-75
2021/12/16 12:34:36;;;;;;;99.93;25.58;;;8.80;99.90;;;;;;5053156;28;20492;-75
2021/12/16 12:37:06;;;;;;;79.47;24.23;;;8.90;99.90;;;;;;5058092;28;20131;-75
2021/12/16 12:39:38;;;;;;;95.00;25.27;;;8.90;99.90;;;;;;5057372;28;20044;-75
2021/12/16 12:42:06;;;;;;;114.20;26.10;;;8.90;99.90;;;;;;5058025;28;20099;-75
2021/12/16 12:44:32;;;;;;;89.63;24.38;;;8.90;99.90;;;;;;5076225;28;20041;-75
2021/12/16 12:47:05;;;;;;;75.75;23.25;;;8.90;99.90;;;;;;5057676;28;20051;-75
2021/12/16 12:49:31;;;;;;;207.13;33.35;;;8.90;99.90;;;;;;5054652;28;20076;-75
2021/12/16 12:52:09;;;;;;;127.95;27.27;;;9.00;99.90;;;;;;5054302;28;20076;-75
2021/12/16 12:54:36;;;;;;;103.47;25.55;;;9.00;99.90;;;;;;5069790;28;20040;-74
2021/12/16 12:57:32;;;;;;;109.05;25.75;;;9.00;99.90;;;;;;5057733;28;20072;-75
2021/12/16 12:59:59;;;;;;;139.55;27.15;;;9.00;99.90;;;;;;5074521;28;20087;-75
2021/12/16 13:02:39;;;;;;;121.00;23.90;;;9.00;99.90;;;;;;5057833;28;20150;-74
2021/12/16 13:05:16;;;;;;;160.93;28.15;;;9.00;99.90;;;;;;5057989;28;20232;-74
2021/12/16 13:07:52;;;;;;;86.97;19.65;;;9.00;99.90;;;;;;5072807;28;20041;-74
2021/12/16 13:10:22;;;;;;;95.55;19.00;;;9.00;99.90;;;;;;5057570;28;20048;-74
2021/12/16 13:13:22;;;;;;;98.32;19.60;;;9.00;99.90;;;;;;5057860;28;20047;-74
2021/12/16 13:16:12;;;;;;;107.38;21.10;;;9.10;99.90;;;;;;5057224;28;20060;-74
2021/12/16 13:27:19;;;;;;;101.57;20.45;;;9.00;99.90;;;;;;5056767;28;20049;-74
2021/12/16 13:32:45;;;;;;;192.77;29.52;;;9.00;99.90;;;;;;5057121;28;20052;-74
2021/12/16 13:35:34;;;;;;;152.25;25.27;;;9.00;99.90;;;;;;5056491;28;20063;-74
2021/12/16 13:38:07;;;;;;;182.73;29.75;;;9.00;99.90;;;;;;5053444;28;20060;-74
2021/12/16 13:40:42;;;;;;;107.05;22.63;;;9.00;99.90;;;;;;5055234;28;20052;-74
2021/12/16 13:43:21;;;;;;;93.60;21.48;;;9.00;99.90;;;;;;5054367;28;20045;-74
2021/12/16 13:46:01;;;;;;;114.72;24.05;;;9.00;99.90;;;;;;5037344;28;20091;-74
2021/12/16 14:05:39;;;;;;;84.40;21.33;;;9.00;99.90;;;;;;5036859;28;20451;-74
2021/12/16 14:08:12;;;;;;;82.15;21.48;;;9.00;99.90;;;;;;5053988;28;20060;-74
2021/12/16 14:10:48;;;;;;;83.72;22.88;;;8.90;99.90;;;;;;5073607;28;20040;-74
2021/12/16 14:47:02;;;;;;;66.10;22.50;;;8.80;99.90;;;;;;5035335;28;20064;-74
2021/12/16 14:49:35;;;;;;;102.35;25.00;;;8.80;99.90;;;;;;5036072;28;20041;-74
2021/12/16 14:52:02;;;;;;;80.00;23.92;;;8.80;99.90;;;;;;5061607;28;20040;-74
2021/12/16 14:54:30;;;;;;;85.82;24.30;;;8.80;99.90;;;;;;5055844;28;20400;-74
2021/12/16 14:57:00;;;;;;;97.38;26.50;;;8.80;99.90;;;;;;5055386;28;20057;-74
2021/12/16 14:59:28;;;;;;;89.70;24.33;;;8.80;99.90;;;;;;5054974;28;20047;-74
2021/12/16 15:01:59;;;;;;;111.45;28.67;;;8.80;99.90;;;;;;5073390;28;20091;-74
2021/12/16 15:04:26;;;;;;;73.40;23.52;;;8.80;99.90;;;;;;5055606;28;20056;-74
2021/12/16 15:07:05;;;;;;;113.47;28.38;;;8.80;99.90;;;;;;5072493;28;20040;-74
2021/12/16 15:09:37;;;;;;;111.03;27.15;;;8.90;99.90;;;;;;5055700;28;20070;-74
2021/12/16 15:17:22;;;;;;;118.30;30.83;;;8.90;99.90;;;;;;5055458;28;20063;-74
2021/12/16 15:39:43;;;;;;;85.57;27.63;;;8.90;99.90;;;;;;5055205;28;20048;-74
2021/12/16 15:45:03;;;;;;;125.55;31.20;;;8.90;99.90;;;;;;5054832;28;20463;-74
2021/12/16 15:47:29;;;;;;;225.77;40.95;;;8.90;99.90;;;;;;5073258;28;20041;-74
2021/12/16 15:49:57;;;;;;;210.05;37.00;;;8.80;99.90;;;;;;5076161;28;20503;-74
2021/12/16 15:52:23;;;;;;;235.77;40.80;;;8.90;99.90;;;;;;5077037;28;20079;-74
2021/12/16 15:54:51;;;;;;;206.18;40.13;;;8.90;99.90;;;;;;5076038;28;20075;-74
2021/12/16 15:57:23;;;;;;;223.20;40.63;;;8.90;99.90;;;;;;5076723;28;20165;-74
2021/12/16 15:59:50;;;;;;;92.43;32.33;;;8.90;99.90;;;;;;5059132;28;20053;-74
2021/12/16 16:02:18;;;;;;;132.02;34.28;;;8.90;99.90;;;;;;5076213;28;20056;-74
2021/12/16 16:04:45;;;;;;;136.50;34.85;;;8.90;99.90;;;;;;5059108;28;20040;-74
2021/12/16 16:07:14;;;;;;;103.65;33.70;;;8.90;99.90;;;;;;5058480;28;20053;-74
2021/12/16 16:09:50;;;;;;;162.55;35.83;;;8.90;99.90;;;;;;5075775;28;20041;-74
2021/12/16 16:12:18;;;;;;;162.18;35.75;;;8.90;99.90;;;;;;5055244;28;20137;-74
2021/12/16 16:14:54;;;;;;;183.45;39.53;;;8.90;99.90;;;;;;5055212;28;20530;-74
2021/12/16 16:17:23;;;;;;;169.25;39.45;;;8.90;99.90;;;;;;5038539;28;20080;-74
2021/12/16 16:19:52;;;;;;;160.73;37.55;;;8.90;99.90;;;;;;5038766;28;20507;-74
2021/12/16 16:22:19;;;;;;;105.85;32.85;;;8.90;99.90;;;;;;5049730;28;20052;-74
2021/12/16 16:24:48;;;;;;;125.90;35.90;;;8.90;99.90;;;;;;5054198;28;20576;-74
2021/12/16 16:27:18;;;;;;;113.45;34.83;;;8.90;99.90;;;;;;5056273;28;20045;-74
2021/12/16 16:29:50;;;;;;;149.52;37.33;;;8.90;99.90;;;;;;5056331;28;20550;-74
2021/12/16 16:32:17;;;;;;;125.13;33.53;;;8.90;99.90;;;;;;5064831;28;20056;-74
2021/12/16 16:34:46;;;;;;;117.03;34.53;;;8.90;99.90;;;;;;5057851;28;20052;-74